Aviation Digital Data Service (ADDS)

Output produced by TAFs form (0504 UTC 04 July 2015)
found at http://aviationweather.gov/adds/tafs/
 
KPUB 040210Z 0402/0424 13007KT P6SM VCTS SCT090CB BKN200 
     TEMPO 0402/0404 VRB15G30KT 3SM -TSRA BKN070CB 
     FM040600 09006KT P6SM SCT100 SCT200 
     FM041500 14006KT P6SM SCT100 SCT200 
     FM041800 15011KT P6SM FEW080 SCT200 
     FM042000 17011KT P6SM VCTS SCT080CB BKN200